WMT6Z LIRZ-LATI
Flight info
| Callsign | WMT6Z |
|---|---|
| Flight time | 0h 56m |
| Altitude | 36000 |
| Route | GITOD DCT INTUD DCT GARGA/N0439F370 DCT VAKSU DCT PETAK |
| Aircraft | A321/M-SDE1E2E3FGIJ1J4RWXY/LB1 |
Departure
| Time | 2026-05-07 11:48 |
|---|---|
| Airport | Perugia San Francesco d'Assisi – Umbria International Airport (LIRZ) |
Arrival
| Time | 2026-05-07 12:44 |
|---|---|
| Airport | Tirana International Airport Mother Teresa (LATI) |
| Time | Latitude | Longitude | Altitude | Speed | Heading |
|---|---|---|---|---|---|
| 2026-05-07 11:18 | 43.09411 | 12.50397 | 669 ft | 0 kts | 340° |
| 2026-05-07 11:38 | 43.09413 | 12.50397 | 669 ft | 1 kts | 346° |
| 2026-05-07 11:38 | 43.09420 | 12.50404 | 666 ft | 2 kts | 41° |
| 2026-05-07 11:38 | 43.09424 | 12.50425 | 669 ft | 2 kts | 77° |
| 2026-05-07 11:38 | 43.09427 | 12.50440 | 669 ft | 1 kts | 77° |
| 2026-05-07 11:39 | 43.09431 | 12.50456 | 669 ft | 2 kts | 70° |
| 2026-05-07 11:39 | 43.09441 | 12.50479 | 669 ft | 2 kts | 39° |
| 2026-05-07 11:39 | 43.09458 | 12.50483 | 668 ft | 3 kts | 0° |
| 2026-05-07 11:39 | 43.09482 | 12.50473 | 669 ft | 5 kts | 342° |
| 2026-05-07 11:40 | 43.09521 | 12.50460 | 669 ft | 7 kts | 358° |
| 2026-05-07 11:40 | 43.09557 | 12.50508 | 669 ft | 9 kts | 66° |
| 2026-05-07 11:40 | 43.09584 | 12.50590 | 668 ft | 10 kts | 65° |
| 2026-05-07 11:40 | 43.09615 | 12.50684 | 669 ft | 12 kts | 65° |
| 2026-05-07 11:41 | 43.09650 | 12.50791 | 667 ft | 13 kts | 65° |
| 2026-05-07 11:41 | 43.09688 | 12.50906 | 668 ft | 13 kts | 65° |
| 2026-05-07 11:41 | 43.09726 | 12.51021 | 667 ft | 13 kts | 65° |
| 2026-05-07 11:41 | 43.09758 | 12.51120 | 668 ft | 10 kts | 66° |
| 2026-05-07 11:42 | 43.09808 | 12.51167 | 669 ft | 8 kts | 14° |
| 2026-05-07 11:42 | 43.09862 | 12.51185 | 669 ft | 7 kts | 14° |
| 2026-05-07 11:42 | 43.09910 | 12.51202 | 669 ft | 7 kts | 14° |
| 2026-05-07 11:42 | 43.09960 | 12.51219 | 669 ft | 8 kts | 14° |
| 2026-05-07 11:43 | 43.10013 | 12.51238 | 669 ft | 8 kts | 14° |
| 2026-05-07 11:43 | 43.10072 | 12.51259 | 669 ft | 9 kts | 14° |
| 2026-05-07 11:43 | 43.10143 | 12.51284 | 669 ft | 12 kts | 14° |
| 2026-05-07 11:43 | 43.10227 | 12.51313 | 669 ft | 13 kts | 14° |
| 2026-05-07 11:44 | 43.10320 | 12.51345 | 669 ft | 14 kts | 14° |
| 2026-05-07 11:44 | 43.10422 | 12.51380 | 669 ft | 16 kts | 14° |
| 2026-05-07 11:44 | 43.10506 | 12.51410 | 669 ft | 12 kts | 14° |
| 2026-05-07 11:44 | 43.10591 | 12.51440 | 669 ft | 13 kts | 14° |
| 2026-05-07 11:45 | 43.10684 | 12.51472 | 668 ft | 14 kts | 14° |
| 2026-05-07 11:45 | 43.10767 | 12.51510 | 668 ft | 9 kts | 39° |
| 2026-05-07 11:45 | 43.10782 | 12.51564 | 669 ft | 0 kts | 94° |
| 2026-05-07 11:46 | 43.10781 | 12.51575 | 669 ft | 2 kts | 96° |
| 2026-05-07 11:46 | 43.10776 | 12.51604 | 669 ft | 4 kts | 104° |
| 2026-05-07 11:47 | 43.10766 | 12.51651 | 669 ft | 6 kts | 105° |
| 2026-05-07 11:47 | 43.10746 | 12.51708 | 668 ft | 7 kts | 140° |
| 2026-05-07 11:47 | 43.10691 | 12.51706 | 667 ft | 11 kts | 194° |
| 2026-05-07 11:47 | 43.10490 | 12.51637 | 671 ft | 64 kts | 194° |
| 2026-05-07 11:48 | 43.09819 | 12.51403 | 668 ft | 133 kts | 194° |
| 2026-05-07 11:48 | 43.08785 | 12.51055 | 999 ft | 157 kts | 195° |
| 2026-05-07 11:48 | 43.07741 | 12.50681 | 1805 ft | 155 kts | 195° |
| 2026-05-07 11:48 | 43.06674 | 12.50318 | 2326 ft | 166 kts | 196° |
| 2026-05-07 11:49 | 43.05480 | 12.49914 | 2639 ft | 188 kts | 195° |
| 2026-05-07 11:49 | 43.04168 | 12.49336 | 2937 ft | 208 kts | 206° |
| 2026-05-07 11:49 | 43.02872 | 12.48356 | 3441 ft | 218 kts | 210° |
| 2026-05-07 11:49 | 43.01532 | 12.47310 | 4173 ft | 224 kts | 211° |
| 2026-05-07 11:50 | 43.00166 | 12.46256 | 4980 ft | 228 kts | 211° |
| 2026-05-07 11:50 | 42.98780 | 12.45189 | 5776 ft | 230 kts | 210° |
| 2026-05-07 11:50 | 42.97377 | 12.44109 | 6590 ft | 233 kts | 210° |
| 2026-05-07 11:50 | 42.95959 | 12.43020 | 7370 ft | 235 kts | 210° |
| 2026-05-07 11:51 | 42.94523 | 12.41921 | 8142 ft | 238 kts | 210° |
| 2026-05-07 11:51 | 42.93073 | 12.40811 | 8947 ft | 240 kts | 210° |
| 2026-05-07 11:51 | 42.91603 | 12.39684 | 9717 ft | 244 kts | 211° |
| 2026-05-07 11:51 | 42.90115 | 12.38541 | 10433 ft | 248 kts | 211° |
| 2026-05-07 11:52 | 42.88538 | 12.37348 | 10731 ft | 271 kts | 211° |
| 2026-05-07 11:52 | 42.86813 | 12.36063 | 10974 ft | 294 kts | 211° |
| 2026-05-07 11:52 | 42.84942 | 12.34680 | 11191 ft | 317 kts | 210° |
| 2026-05-07 11:52 | 42.82953 | 12.33231 | 11661 ft | 329 kts | 208° |
| 2026-05-07 11:53 | 42.80727 | 12.32395 | 12380 ft | 338 kts | 186° |
| 2026-05-07 11:53 | 42.78388 | 12.32867 | 13164 ft | 348 kts | 162° |
| 2026-05-07 11:53 | 42.76276 | 12.34548 | 13890 ft | 356 kts | 149° |
| 2026-05-07 11:53 | 42.74237 | 12.36479 | 14540 ft | 358 kts | 149° |
| 2026-05-07 11:54 | 42.72190 | 12.38442 | 15203 ft | 362 kts | 149° |
| 2026-05-07 11:54 | 42.70125 | 12.40422 | 15846 ft | 365 kts | 149° |
| 2026-05-07 11:54 | 42.68037 | 12.42414 | 16479 ft | 368 kts | 149° |
| 2026-05-07 11:54 | 42.65932 | 12.44409 | 17176 ft | 370 kts | 150° |
| 2026-05-07 11:55 | 42.63805 | 12.46412 | 17848 ft | 374 kts | 150° |
| 2026-05-07 11:55 | 42.61660 | 12.48427 | 18480 ft | 377 kts | 150° |
| 2026-05-07 11:55 | 42.59496 | 12.50458 | 19066 ft | 379 kts | 150° |
| 2026-05-07 11:55 | 42.57316 | 12.52499 | 19645 ft | 382 kts | 151° |
| 2026-05-07 11:56 | 42.55121 | 12.54556 | 20225 ft | 385 kts | 151° |
| 2026-05-07 11:56 | 42.52911 | 12.56629 | 20812 ft | 388 kts | 151° |
| 2026-05-07 11:56 | 42.50756 | 12.58874 | 21397 ft | 397 kts | 143° |
| 2026-05-07 11:56 | 42.48933 | 12.61750 | 21966 ft | 410 kts | 129° |
| 2026-05-07 11:57 | 42.47593 | 12.65219 | 22550 ft | 423 kts | 116° |
| 2026-05-07 11:57 | 42.46857 | 12.69122 | 23127 ft | 435 kts | 101° |
| 2026-05-07 11:57 | 42.46638 | 12.73249 | 23662 ft | 442 kts | 97° |
| 2026-05-07 11:57 | 42.46461 | 12.77426 | 24049 ft | 446 kts | 98° |
| 2026-05-07 11:58 | 42.46279 | 12.81638 | 24485 ft | 450 kts | 98° |
| 2026-05-07 11:58 | 42.46091 | 12.85878 | 24904 ft | 453 kts | 98° |
| 2026-05-07 11:58 | 42.45898 | 12.90155 | 25307 ft | 457 kts | 98° |
| 2026-05-07 11:58 | 42.45695 | 12.94475 | 25713 ft | 461 kts | 98° |
| 2026-05-07 11:59 | 42.45486 | 12.98826 | 26123 ft | 465 kts | 98° |
| 2026-05-07 11:59 | 42.45280 | 13.03214 | 26500 ft | 469 kts | 98° |
| 2026-05-07 11:59 | 42.45071 | 13.07643 | 26886 ft | 473 kts | 98° |
| 2026-05-07 11:59 | 42.44860 | 13.12104 | 27263 ft | 477 kts | 98° |
| 2026-05-07 12:00 | 42.44647 | 13.16597 | 27557 ft | 480 kts | 98° |
| 2026-05-07 12:00 | 42.44430 | 13.21125 | 27932 ft | 484 kts | 98° |
| 2026-05-07 12:00 | 42.44207 | 13.25694 | 28265 ft | 488 kts | 98° |
| 2026-05-07 12:00 | 42.43982 | 13.30291 | 28636 ft | 491 kts | 98° |
| 2026-05-07 12:01 | 42.43755 | 13.34922 | 29037 ft | 495 kts | 98° |
| 2026-05-07 12:01 | 42.43525 | 13.39584 | 29404 ft | 498 kts | 98° |
| 2026-05-07 12:01 | 42.43293 | 13.44282 | 29743 ft | 502 kts | 97° |
| 2026-05-07 12:01 | 42.43058 | 13.49006 | 30070 ft | 506 kts | 98° |
| 2026-05-07 12:02 | 42.42816 | 13.53777 | 30307 ft | 509 kts | 97° |
| 2026-05-07 12:02 | 42.42571 | 13.58567 | 30655 ft | 512 kts | 97° |
| 2026-05-07 12:02 | 42.42324 | 13.63383 | 30971 ft | 513 kts | 97° |
| 2026-05-07 12:02 | 42.42075 | 13.68211 | 31297 ft | 515 kts | 97° |
| 2026-05-07 12:03 | 42.41822 | 13.73057 | 31629 ft | 517 kts | 97° |
| 2026-05-07 12:03 | 42.41562 | 13.77914 | 32029 ft | 517 kts | 97° |
| 2026-05-07 12:03 | 42.41298 | 13.82754 | 32316 ft | 515 kts | 97° |
| 2026-05-07 12:03 | 42.41032 | 13.87588 | 32654 ft | 515 kts | 97° |
| 2026-05-07 12:04 | 42.40767 | 13.92412 | 33063 ft | 514 kts | 97° |
| 2026-05-07 12:04 | 42.40502 | 13.97223 | 33519 ft | 512 kts | 97° |
| 2026-05-07 12:04 | 42.40240 | 14.02024 | 33974 ft | 511 kts | 97° |
| 2026-05-07 12:04 | 42.39977 | 14.06813 | 34358 ft | 510 kts | 97° |
| 2026-05-07 12:05 | 42.39711 | 14.11594 | 34708 ft | 509 kts | 97° |
| 2026-05-07 12:05 | 42.39443 | 14.16369 | 34948 ft | 509 kts | 97° |
| 2026-05-07 12:05 | 42.39170 | 14.21146 | 35193 ft | 509 kts | 97° |
| 2026-05-07 12:05 | 42.38895 | 14.25921 | 35425 ft | 509 kts | 97° |
| 2026-05-07 12:06 | 42.38620 | 14.30688 | 35669 ft | 508 kts | 97° |
| 2026-05-07 12:06 | 42.38342 | 14.35453 | 35915 ft | 508 kts | 97° |
| 2026-05-07 12:06 | 42.38062 | 14.40217 | 36015 ft | 507 kts | 97° |
| 2026-05-07 12:07 | 42.37506 | 14.49673 | 36031 ft | 503 kts | 97° |
| 2026-05-07 12:07 | 42.36939 | 14.59062 | 36029 ft | 503 kts | 97° |
| 2026-05-07 12:08 | 42.36361 | 14.68482 | 36027 ft | 503 kts | 97° |
| 2026-05-07 12:08 | 42.35784 | 14.77822 | 36029 ft | 503 kts | 97° |
| 2026-05-07 12:09 | 42.35193 | 14.87246 | 36038 ft | 503 kts | 97° |
| 2026-05-07 12:09 | 42.34596 | 14.96673 | 36028 ft | 503 kts | 97° |
| 2026-05-07 12:10 | 42.33990 | 15.06097 | 36033 ft | 504 kts | 97° |
| 2026-05-07 12:10 | 42.33370 | 15.15526 | 36035 ft | 504 kts | 97° |
| 2026-05-07 12:11 | 42.32743 | 15.24952 | 36050 ft | 504 kts | 97° |
| 2026-05-07 12:11 | 42.32124 | 15.34377 | 36045 ft | 503 kts | 97° |
| 2026-05-07 12:12 | 42.31494 | 15.43797 | 36050 ft | 503 kts | 97° |
| 2026-05-07 12:12 | 42.30850 | 15.53210 | 36042 ft | 503 kts | 97° |
| 2026-05-07 12:13 | 42.30195 | 15.62620 | 36054 ft | 503 kts | 97° |
| 2026-05-07 12:13 | 42.29533 | 15.72019 | 36045 ft | 503 kts | 97° |
| 2026-05-07 12:14 | 42.28872 | 15.81413 | 36053 ft | 502 kts | 97° |
| 2026-05-07 12:14 | 42.28201 | 15.90799 | 36054 ft | 502 kts | 97° |
| 2026-05-07 12:15 | 42.27521 | 16.00175 | 36034 ft | 502 kts | 97° |
| 2026-05-07 12:15 | 42.26829 | 16.09545 | 36052 ft | 501 kts | 97° |
| 2026-05-07 12:16 | 42.26066 | 16.18888 | 36057 ft | 500 kts | 98° |
| 2026-05-07 12:16 | 42.25156 | 16.28193 | 36057 ft | 500 kts | 99° |
| 2026-05-07 12:17 | 42.24214 | 16.37485 | 36047 ft | 500 kts | 99° |
| 2026-05-07 12:17 | 42.23301 | 16.46773 | 36059 ft | 499 kts | 98° |
| 2026-05-07 12:18 | 42.22407 | 16.56046 | 36080 ft | 498 kts | 98° |
| 2026-05-07 12:18 | 42.21507 | 16.65300 | 36075 ft | 497 kts | 98° |
| 2026-05-07 12:19 | 42.20598 | 16.74532 | 36064 ft | 496 kts | 98° |
| 2026-05-07 12:19 | 42.19680 | 16.83741 | 36078 ft | 495 kts | 98° |
| 2026-05-07 12:20 | 42.18753 | 16.92925 | 36080 ft | 494 kts | 98° |
| 2026-05-07 12:20 | 42.17815 | 17.02087 | 36078 ft | 493 kts | 98° |
| 2026-05-07 12:21 | 42.16869 | 17.11292 | 36084 ft | 492 kts | 99° |
| 2026-05-07 12:21 | 42.15930 | 17.20417 | 36089 ft | 491 kts | 99° |
| 2026-05-07 12:22 | 42.14980 | 17.29523 | 36091 ft | 490 kts | 99° |
| 2026-05-07 12:22 | 42.14027 | 17.38612 | 36094 ft | 490 kts | 99° |
| 2026-05-07 12:23 | 42.13073 | 17.47701 | 36083 ft | 490 kts | 99° |
| 2026-05-07 12:23 | 42.12105 | 17.56799 | 36088 ft | 491 kts | 99° |
| 2026-05-07 12:24 | 42.11294 | 17.64328 | 35684 ft | 486 kts | 99° |
| 2026-05-07 12:24 | 42.10810 | 17.68820 | 35240 ft | 483 kts | 99° |
| 2026-05-07 12:24 | 42.10327 | 17.73276 | 34833 ft | 479 kts | 99° |
| 2026-05-07 12:24 | 42.09848 | 17.77694 | 34418 ft | 475 kts | 99° |
| 2026-05-07 12:25 | 42.09370 | 17.82082 | 34001 ft | 472 kts | 99° |
| 2026-05-07 12:25 | 42.08894 | 17.86430 | 33533 ft | 468 kts | 99° |
| 2026-05-07 12:25 | 42.08418 | 17.90747 | 32875 ft | 468 kts | 99° |
| 2026-05-07 12:25 | 42.07928 | 17.95134 | 31722 ft | 480 kts | 99° |
| 2026-05-07 12:26 | 42.07427 | 17.99621 | 30682 ft | 489 kts | 100° |
| 2026-05-07 12:26 | 42.06923 | 18.04156 | 29945 ft | 490 kts | 100° |
| 2026-05-07 12:26 | 42.06423 | 18.08683 | 29267 ft | 487 kts | 100° |
| 2026-05-07 12:26 | 42.05927 | 18.13178 | 28651 ft | 483 kts | 100° |
| 2026-05-07 12:27 | 42.05434 | 18.17628 | 28029 ft | 479 kts | 100° |
| 2026-05-07 12:27 | 42.04940 | 18.22037 | 27419 ft | 475 kts | 100° |
| 2026-05-07 12:27 | 42.04446 | 18.26411 | 26818 ft | 471 kts | 100° |
| 2026-05-07 12:27 | 42.03949 | 18.30774 | 25759 ft | 477 kts | 101° |
| 2026-05-07 12:28 | 42.03439 | 18.35202 | 24843 ft | 480 kts | 101° |
| 2026-05-07 12:28 | 42.02928 | 18.39636 | 24141 ft | 478 kts | 101° |
| 2026-05-07 12:28 | 42.02421 | 18.44037 | 23470 ft | 474 kts | 101° |
| 2026-05-07 12:28 | 42.01920 | 18.48399 | 22718 ft | 471 kts | 101° |
| 2026-05-07 12:29 | 42.01324 | 18.52697 | 22004 ft | 464 kts | 108° |
| 2026-05-07 12:29 | 42.00222 | 18.56726 | 21310 ft | 456 kts | 115° |
| 2026-05-07 12:29 | 41.99037 | 18.60662 | 20617 ft | 452 kts | 115° |
| 2026-05-07 12:29 | 41.97863 | 18.64566 | 19946 ft | 448 kts | 115° |
| 2026-05-07 12:30 | 41.96702 | 18.68436 | 19314 ft | 445 kts | 115° |
| 2026-05-07 12:30 | 41.95550 | 18.72276 | 18699 ft | 441 kts | 115° |
| 2026-05-07 12:30 | 41.94401 | 18.76082 | 18069 ft | 438 kts | 115° |
| 2026-05-07 12:30 | 41.93247 | 18.79849 | 17432 ft | 434 kts | 115° |
| 2026-05-07 12:31 | 41.92090 | 18.83571 | 16851 ft | 430 kts | 116° |
| 2026-05-07 12:31 | 41.90935 | 18.87251 | 16226 ft | 426 kts | 116° |
| 2026-05-07 12:31 | 41.89786 | 18.90893 | 15576 ft | 421 kts | 116° |
| 2026-05-07 12:31 | 41.88646 | 18.94497 | 14929 ft | 417 kts | 116° |
| 2026-05-07 12:32 | 41.87516 | 18.98061 | 14298 ft | 413 kts | 116° |
| 2026-05-07 12:32 | 41.86398 | 19.01594 | 13622 ft | 410 kts | 116° |
| 2026-05-07 12:32 | 41.85291 | 19.05091 | 12925 ft | 405 kts | 116° |
| 2026-05-07 12:32 | 41.84199 | 19.08544 | 12259 ft | 399 kts | 116° |
| 2026-05-07 12:33 | 41.82063 | 19.15293 | 10853 ft | 388 kts | 116° |
| 2026-05-07 12:33 | 41.81041 | 19.18529 | 10704 ft | 366 kts | 116° |
| 2026-05-07 12:33 | 41.80065 | 19.21613 | 10312 ft | 355 kts | 116° |
| 2026-05-07 12:34 | 41.79105 | 19.24630 | 9767 ft | 349 kts | 116° |
| 2026-05-07 12:34 | 41.78157 | 19.27601 | 9153 ft | 344 kts | 116° |
| 2026-05-07 12:34 | 41.77221 | 19.30530 | 8537 ft | 339 kts | 115° |
| 2026-05-07 12:34 | 41.76299 | 19.33408 | 7955 ft | 333 kts | 115° |
| 2026-05-07 12:35 | 41.75395 | 19.36228 | 7327 ft | 326 kts | 115° |
| 2026-05-07 12:35 | 41.74483 | 19.38965 | 6774 ft | 317 kts | 118° |
| 2026-05-07 12:35 | 41.73387 | 19.41408 | 6622 ft | 295 kts | 127° |
| 2026-05-07 12:35 | 41.72129 | 19.43451 | 6467 ft | 275 kts | 134° |
| 2026-05-07 12:36 | 41.70867 | 19.45273 | 6321 ft | 259 kts | 135° |
| 2026-05-07 12:36 | 41.69688 | 19.46994 | 6196 ft | 241 kts | 135° |
| 2026-05-07 12:36 | 41.68593 | 19.48608 | 5919 ft | 229 kts | 135° |
| 2026-05-07 12:36 | 41.67549 | 19.50129 | 5649 ft | 214 kts | 136° |
| 2026-05-07 12:37 | 41.66579 | 19.51539 | 5441 ft | 199 kts | 136° |
| 2026-05-07 12:37 | 41.65669 | 19.52865 | 5179 ft | 189 kts | 137° |
| 2026-05-07 12:37 | 41.64798 | 19.54120 | 4957 ft | 179 kts | 139° |
| 2026-05-07 12:37 | 41.63930 | 19.55253 | 4762 ft | 173 kts | 142° |
| 2026-05-07 12:38 | 41.63051 | 19.56371 | 4547 ft | 175 kts | 141° |
| 2026-05-07 12:38 | 41.62178 | 19.57497 | 4329 ft | 174 kts | 141° |
| 2026-05-07 12:38 | 41.61314 | 19.58604 | 4119 ft | 169 kts | 141° |
| 2026-05-07 12:38 | 41.60480 | 19.59683 | 3883 ft | 166 kts | 139° |
| 2026-05-07 12:39 | 41.59665 | 19.60750 | 3643 ft | 162 kts | 141° |
| 2026-05-07 12:39 | 41.58842 | 19.61745 | 3445 ft | 158 kts | 141° |
| 2026-05-07 12:39 | 41.58007 | 19.62692 | 3294 ft | 157 kts | 144° |
| 2026-05-07 12:39 | 41.57146 | 19.63595 | 3096 ft | 158 kts | 146° |
| 2026-05-07 12:40 | 41.56274 | 19.64471 | 2889 ft | 157 kts | 146° |
| 2026-05-07 12:40 | 41.55395 | 19.65339 | 2704 ft | 157 kts | 144° |
| 2026-05-07 12:40 | 41.54526 | 19.66232 | 2496 ft | 158 kts | 143° |
| 2026-05-07 12:40 | 41.53662 | 19.67145 | 2354 ft | 159 kts | 143° |
| 2026-05-07 12:41 | 41.52788 | 19.68067 | 2113 ft | 162 kts | 143° |
| 2026-05-07 12:41 | 41.51922 | 19.68978 | 1881 ft | 154 kts | 143° |
| 2026-05-07 12:41 | 41.51090 | 19.69816 | 1696 ft | 148 kts | 144° |
| 2026-05-07 12:41 | 41.50268 | 19.70611 | 1541 ft | 144 kts | 150° |
| 2026-05-07 12:42 | 41.49334 | 19.71008 | 1367 ft | 141 kts | 173° |
| 2026-05-07 12:42 | 41.48356 | 19.71119 | 1187 ft | 141 kts | 174° |
| 2026-05-07 12:42 | 41.47366 | 19.71260 | 994 ft | 141 kts | 173° |
| 2026-05-07 12:42 | 41.46372 | 19.71412 | 816 ft | 146 kts | 175° |
| 2026-05-07 12:43 | 41.45360 | 19.71529 | 672 ft | 144 kts | 173° |
| 2026-05-07 12:43 | 41.44382 | 19.71666 | 493 ft | 143 kts | 174° |
| 2026-05-07 12:43 | 41.43395 | 19.71799 | 298 ft | 141 kts | 173° |
| 2026-05-07 12:43 | 41.42417 | 19.71932 | 124 ft | 140 kts | 174° |
| 2026-05-07 12:44 | 41.41570 | 19.72043 | 122 ft | 98 kts | 174° |
| 2026-05-07 12:44 | 41.40994 | 19.72122 | 133 ft | 73 kts | 174° |
| 2026-05-07 12:44 | 41.40545 | 19.72182 | 132 ft | 54 kts | 174° |
| 2026-05-07 12:44 | 41.40298 | 19.72216 | 132 ft | 15 kts | 174° |
| 2026-05-07 12:45 | 41.40249 | 19.72168 | 133 ft | 10 kts | 254° |
| 2026-05-07 12:45 | 41.40242 | 19.72073 | 133 ft | 11 kts | 265° |
| 2026-05-07 12:45 | 41.40250 | 19.71965 | 133 ft | 13 kts | 300° |
| 2026-05-07 12:45 | 41.40323 | 19.71887 | 133 ft | 15 kts | 324° |
| 2026-05-07 12:46 | 41.40412 | 19.71809 | 132 ft | 16 kts | 338° |
| 2026-05-07 12:46 | 41.40529 | 19.71789 | 132 ft | 18 kts | 354° |
| 2026-05-07 12:46 | 41.40658 | 19.71772 | 132 ft | 19 kts | 354° |
| 2026-05-07 12:46 | 41.40798 | 19.71752 | 132 ft | 21 kts | 351° |
| 2026-05-07 12:47 | 41.40948 | 19.71714 | 129 ft | 23 kts | 352° |
| 2026-05-07 12:47 | 41.41112 | 19.71693 | 128 ft | 24 kts | 354° |
| 2026-05-07 12:47 | 41.41287 | 19.71669 | 129 ft | 26 kts | 354° |
| 2026-05-07 12:47 | 41.41474 | 19.71644 | 124 ft | 27 kts | 354° |
| 2026-05-07 12:48 | 41.41643 | 19.71622 | 122 ft | 21 kts | 354° |
| 2026-05-07 12:48 | 41.41775 | 19.71604 | 121 ft | 19 kts | 354° |
| 2026-05-07 12:48 | 41.41902 | 19.71587 | 119 ft | 17 kts | 354° |
| 2026-05-07 12:48 | 41.42018 | 19.71571 | 121 ft | 17 kts | 354° |
| 2026-05-07 12:49 | 41.42133 | 19.71555 | 118 ft | 16 kts | 354° |
| 2026-05-07 12:49 | 41.42245 | 19.71540 | 121 ft | 16 kts | 354° |
| 2026-05-07 12:49 | 41.42353 | 19.71526 | 117 ft | 15 kts | 354° |
| 2026-05-07 12:49 | 41.42444 | 19.71514 | 117 ft | 10 kts | 354° |
| 2026-05-07 12:50 | 41.42458 | 19.71493 | 118 ft | 1 kts | 277° |
| 2026-05-07 12:50 | 41.42457 | 19.71483 | 118 ft | 1 kts | 266° |
| 2026-05-07 12:50 | 41.42456 | 19.71468 | 119 ft | 2 kts | 265° |
| 2026-05-07 12:50 | 41.42455 | 19.71452 | 119 ft | 1 kts | 264° |
| 2026-05-07 12:51 | 41.42455 | 19.71450 | 119 ft | 0 kts | 264° |